• Join FlightAware (Why Join?)
  • Login
  • US Flag 
04:58AM EDT


 

Airport Tracker/Info


-or-


 

Live Flight TrackerFlight Track Log ✈ UAL1444 ✈ 01-Jul-2013 ✈ KEWR - KLAX

Flight Track Log - Related Links

Times and Time Zones

All times are in EDT time to prevent confusion due to time zone crossing. See the UAL1444 flight status page for this flight to view local times or setup timezone preferences in your user account.

Time Position Orientation Groundspeed Altitude Reporting Facility
EDT Latitude Longitude Course Direction KTS MPH feet Rate Location/Type
11:11AM 40.6715 -74.1818 206° Southwest 186 214 400  Level FlightAware ADS-B
11:11AM 40.6651 -74.1856 204° Southwest 187 215 800 2,820 Climbing FlightAware ADS-B
11:11AM 40.6555 -74.1876 189° South 188 216 1,300 1,800 Climbing FlightAware ADS-B
11:12AM 40.6413 -74.1870 178° South 208 239 1,600 1,320 Climbing FlightAware ADS-B
11:12AM 40.6349 -74.1882 188° South 212 244 1,800 1,800 Climbing FlightAware ADS-B
11:12AM 40.6314 -74.1896 197° South 212 244 1,900 1,980 Climbing FlightAware ADS-B
11:12AM 40.6245 -74.1947 209° Southwest 211 243 2,200 2,760 Climbing FlightAware ADS-B
11:12AM 40.6203 -74.2000 224° Southwest 207 238 2,600 2,820 Climbing FlightAware ADS-B
11:12AM 40.6141 -74.2197 247° West 205 236 3,300 2,040 Climbing FlightAware ADS-B
11:12AM 40.6142 -74.2276 271° West 218 251 3,400 1,380 Climbing FlightAware ADS-B
11:12AM 40.6158 -74.2367 283° West 232 267 3,600 1,680 Climbing FlightAware ADS-B
11:13AM 40.6212 -74.2566 290° West 250 288 4,000 2,160 Climbing FlightAware ADS-B
11:13AM 40.6332 -74.2966 292° West 261 300 5,100 2,820 Climbing FlightAware ADS-B
11:13AM 40.6402 -74.3188 293° West 258 297 6,000 3,000 Climbing FlightAware ADS-B
11:14AM 40.6477 -74.3424 293° West 263 303 6,700 2,640 Climbing FlightAware ADS-B
11:14AM 40.6484 -74.3447 292° West 258 297 6,800 2,580 Climbing FlightAware ADS-B
11:14AM 40.6556 -74.3670 293° West 266 306 7,400 2,400 Climbing FlightAware ADS-B
11:14AM 40.6635 -74.3919 293° West 272 313 8,100 2,580 Climbing FlightAware ADS-B
11:14AM 40.6711 -74.4154 293° West 276 318 8,800 2,580 Climbing FlightAware ADS-B
11:15AM 40.6787 -74.4389 293° West 279 321 9,400 2,220 Climbing FlightAware ADS-B
11:15AM 40.6944 -74.4860 294° West 288 331 10,500 1,560 Climbing FlightAware ADS-B
11:16AM 40.7121 -74.5379 294° West 322 371 11,000 1,140 Climbing FlightAware ADS-B
11:16AM 40.7314 -74.5954 294° West 348 400 11,700 1,560 Climbing FlightAware ADS-B
11:17AM 40.7514 -74.6552 294° West 362 417 12,600 1,680 Climbing FlightAware ADS-B
11:17AM 40.7722 -74.7183 294° West 380 437 13,400 1,680 Climbing FlightAware ADS-B
11:18AM 40.7937 -74.7833 294° West 391 450 14,300 1,860 Climbing FlightAware ADS-B
11:18AM 40.8158 -74.8502 294° West 396 456 15,300 2,040 Climbing FlightAware ADS-B
11:19AM 40.8384 -74.9185 294° West 399 459 16,400 1,920 Climbing FlightAware ADS-B
11:19AM 40.8544 -74.9673 293° West 401 461 17,000 1,500 Climbing FlightAware ADS-B
11:19AM 40.8576 -74.9803 288° West 400 460 17,100 1,380 Climbing FlightAware ADS-B
11:19AM 40.8598 -74.9970 280° West 397 457 17,300 1,680 Climbing FlightAware ADS-B
11:19AM 40.8605 -75.0137 273° West 396 456 17,500 1,500 Climbing FlightAware ADS-B
11:20AM 40.8590 -75.0367 265° West 395 455 17,700 1,500 Climbing FlightAware ADS-B
11:20AM 40.8479 -75.1086 258° West 400 460 18,500 1,560 Climbing FlightAware ADS-B
11:21AM 40.8370 -75.1816 259° West 406 467 19,300 1,560 Climbing FlightAware ADS-B
11:21AM 40.8260 -75.2559 259° West 409 471 20,100 1,560 Climbing FlightAware ADS-B
11:22AM 40.8149 -75.3304 259° West 413 475 20,900 1,500 Climbing FlightAware ADS-B
11:22AM 40.8033 -75.4073 259° West 415 478 21,700 1,440 Climbing FlightAware ADS-B
11:23AM 40.7911 -75.4825 258° West 420 483 22,400 1,260 Climbing FlightAware ADS-B
11:23AM 40.7785 -75.5597 258° West 425 489 23,000 1,140 Climbing FlightAware ADS-B
11:24AM 40.7641 -75.6487 258° West 431 496 23,700 1,200 Climbing FlightAware ADS-B
11:24AM 40.7514 -75.7269 258° West 435 501 24,300 1,200 Climbing FlightAware ADS-B
11:25AM 40.7371 -75.8144 258° West 439 505 25,000 1,200 Climbing FlightAware ADS-B
11:25AM 40.7241 -75.8941 258° West 442 509 25,600 1,260 Climbing FlightAware ADS-B
11:26AM 40.7109 -75.9741 258° West 442 509 26,300 1,140 Climbing FlightAware ADS-B
11:26AM 40.6971 -76.0571 258° West 443 510 26,800 1,200 Climbing FlightAware ADS-B
11:27AM 40.6813 -76.1522 258° West 441 507 27,700 1,320 Climbing FlightAware ADS-B
11:27AM 40.6731 -76.2105 260° West 444 511 28,100 1,200 Climbing FlightAware ADS-B
11:27AM 40.6721 -76.2291 266° West 447 514 28,300 1,260 Climbing FlightAware ADS-B
11:28AM 40.6722 -76.2614 270° West 451 519 28,500 1,020 Climbing FlightAware ADS-B
11:28AM 40.6744 -76.2911 276° West 457 526 28,700 1,260 Climbing FlightAware ADS-B
11:28AM 40.6773 -76.3128 280° West 460 529 28,900 1,020 Climbing FlightAware ADS-B
11:28AM 40.6903 -76.3989 281° West 463 533 29,400 960 Climbing FlightAware ADS-B
11:29AM 40.7031 -76.4850 281° West 465 535 29,900 960 Climbing FlightAware ADS-B
11:29AM 40.7154 -76.5687 281° West 466 536 30,400 1,080 Climbing FlightAware ADS-B
11:30AM 40.7276 -76.6530 281° West 462 532 31,000 1,320 Climbing FlightAware ADS-B
11:31AM 40.7421 -76.7519 281° West 455 524 31,900 1,440 Climbing FlightAware ADS-B
11:31AM 40.7539 -76.8337 281° West 450 518 32,600 1,260 Climbing FlightAware ADS-B
11:32AM 40.7659 -76.9163 281° West 446 513 33,200 1,020 Climbing FlightAware ADS-B
11:32AM 40.7820 -77.0290 281° West 445 512 33,900 540 Climbing FlightAware
11:33AM 40.7960 -77.1280 281° West 446 513 34,000 60 Climbing FlightAware
11:34AM 40.8130 -77.2460 281° West 447 514 34,000  Level FlightAware
11:34AM 40.8261 -77.3376 281° West 446 513 34,000  Level FlightAware ADS-B
11:35AM 40.8430 -77.4610 280° West 444 511 34,000  Level FlightAware
11:36AM 40.8620 -77.5920 281° West 443 510 34,000  Level FlightAware
11:37AM 40.8770 -77.7010 280° West 441 507 34,000  Level FlightAware
11:37AM 40.8890 -77.7900 280° West 439 505 34,000  Level FlightAware
11:38AM 40.9030 -77.8940 280° West 437 503 34,000  Level FlightAware
11:39AM 40.9190 -78.0160 280° West 436 502 34,000  Level FlightAware
11:39AM 40.9300 -78.1040 279° West 435 501 34,000  Level FlightAware
11:40AM 40.9430 -78.2050 280° West 435 501 34,000  Level FlightAware
11:40AM 40.9560 -78.3120 279° West 439 505 34,000  Level FlightAware
11:41AM 40.9690 -78.4190 279° West 441 507 34,000  Level FlightAware
11:42AM 40.9800 -78.5140 279° West 441 507 34,000  Level FlightAware
11:42AM 40.9950 -78.6360 279° West 444 511 34,000  Level FlightAware
11:43AM 41.0070 -78.7430 278° West 445 512 34,000  Level FlightAware
11:44AM 41.0210 -78.8570 279° West 447 514 34,000  Level FlightAware
11:45AM 41.0340 -78.9720 279° West 448 516 34,000  Level FlightAware
11:45AM 41.0470 -79.0820 279° West 449 517 34,000  Level FlightAware
11:46AM 41.0610 -79.2060 279° West 451 519 34,000  Level FlightAware
11:47AM 41.0730 -79.3080 279° West 452 520 34,000  Level FlightAware
11:47AM 41.0840 -79.4060 279° West 455 524 34,000  Level FlightAware
11:48AM 41.0970 -79.5300 278° West 456 525 34,000  Level FlightAware
11:49AM 41.1090 -79.6360 279° West 458 527 34,000  Level FlightAware
11:50AM 41.1270 -79.8030 278° West 460 529 34,000  Level FlightAware
11:50AM 41.1380 -79.8990 279° West 461 531 34,000  Level FlightAware
11:51AM 41.1520 -80.0290 278° West 461 531 34,000  Level FlightAware
11:52AM 41.1630 -80.1380 278° West 461 531 34,000  Level FlightAware
11:52AM 41.1740 -80.2390 278° West 462 532 34,000  Level FlightAware
11:53AM 41.1870 -80.3680 278° West 463 533 34,000  Level FlightAware
11:54AM 41.1990 -80.4790 278° West 464 534 34,000  Level FlightAware
11:54AM 41.2090 -80.5770 278° West 464 534 34,000  Level FlightAware
11:55AM 41.2210 -80.7020 277° West 464 534 34,000  Level FlightAware
11:56AM 41.2340 -80.8270 278° West 463 533 34,000  Level FlightAware
11:56AM 41.2470 -80.9580 278° West 459 528 34,000  Level FlightAware
11:57AM 41.2590 -81.0820 277° West 457 526 34,000  Level FlightAware
11:58AM 41.2680 -81.1820 277° West 456 525 34,000  Level FlightAware
11:58AM 41.2800 -81.3040 277° West 454 522 34,000  Level FlightAware
11:59AM 41.2910 -81.4270 277° West 453 521 34,000  Level FlightAware
12:00PM 41.3020 -81.5360 278° West 453 521 34,000  Level FlightAware
12:01PM 41.3120 -81.6520 277° West 452 520 34,000  Level FlightAware
12:01PM 41.3230 -81.7680 277° West 452 520 34,000  Level FlightAware
12:02PM 41.3340 -81.8870 277° West 452 520 34,000  Level FlightAware
12:03PM 41.3440 -82.0040 277° West 452 520 34,000  Level FlightAware
12:03PM 41.3540 -82.1190 277° West 451 519 34,000  Level FlightAware
12:04PM 41.3620 -82.2220 276° West 447 514 34,000  Level FlightAware
12:05PM 41.3690 -82.3440 274° West 445 512 34,000  Level FlightAware
12:05PM 41.3750 -82.4500 274° West 445 512 34,000  Level FlightAware
12:06PM 41.3810 -82.5620 274° West 445 512 34,000  Level FlightAware
12:07PM 41.3880 -82.6790 275° West 447 514 34,000  Level FlightAware
12:08PM 41.3950 -82.7990 274° West 447 514 34,000  Level FlightAware
12:08PM 41.4010 -82.9250 274° West 449 517 34,000  Level FlightAware
12:09PM 41.4080 -83.0400 275° West 446 513 34,000  Level FlightAware
12:10PM 41.4130 -83.1470 274° West 443 510 34,000  Level FlightAware
12:10PM 41.4180 -83.2440 274° West 444 511 34,000  Level FlightAware
12:11PM 41.4240 -83.3620 274° West 449 517 34,000  Level FlightAware
12:12PM 41.4290 -83.4570 274° West 454 522 34,000  Level FlightAware
12:12PM 41.4350 -83.5810 274° West 460 529 34,000  Level FlightAware
12:13PM 41.4390 -83.6880 273° West 460 529 34,000  Level FlightAware
12:14PM 41.4440 -83.7890 274° West 460 529 34,000  Level FlightAware
12:14PM 41.4500 -83.9220 273° West 459 528 34,000  Level FlightAware
12:15PM 41.4550 -84.0180 274° West 458 527 34,000  Level FlightAware
12:16PM 41.4610 -84.1560 273° West 458 527 34,000  Level FlightAware
12:17PM 41.4670 -84.3100 273° West 458 527 34,000  Level FlightAware
12:17PM 41.4710 -84.4150 273° West 458 527 34,000  Level FlightAware
12:18PM 41.4770 -84.5500 273° West 459 528 34,000  Level FlightAware
12:19PM 41.4820 -84.6790 273° West 465 535 34,000  Level FlightAware
12:20PM 41.4870 -84.8290 273° West 472 543 34,000  Level FlightAware
12:20PM 41.4920 -84.9470 273° West 473 544 34,000  Level FlightAware
12:21PM 41.4960 -85.0680 273° West 474 545 34,000  Level FlightAware
12:22PM 41.5000 -85.1910 273° West 472 543 34,000  Level FlightAware
12:22PM 41.5040 -85.3090 273° West 471 542 34,000  Level FlightAware
12:23PM 41.5080 -85.4400 272° West 468 539 34,000  Level FlightAware
12:24PM 41.5120 -85.5610 273° West 467 537 34,000  Level FlightAware
12:25PM 41.5160 -85.6890 272° West 466 536 34,000  Level FlightAware
12:25PM 41.5190 -85.7930 272° West 465 535 34,000  Level FlightAware
12:26PM 41.5220 -85.9000 272° West 464 534 34,000  Level FlightAware
12:27PM 41.5250 -86.0210 272° West 463 533 34,000  Level FlightAware
12:27PM 41.5270 -86.1340 271° West 461 531 34,000  Level FlightAware
12:28PM 41.5290 -86.2520 271° West 459 528 34,000  Level FlightAware
12:29PM 41.5310 -86.3780 271° West 456 525 34,000  Level FlightAware
12:29PM 41.5330 -86.4930 271° West 453 521 34,000  Level FlightAware
12:30PM 41.5350 -86.6150 271° West 451 519 34,000  Level FlightAware
12:31PM 41.5360 -86.7210 271° West 449 517 34,000  Level FlightAware
12:31PM 41.5380 -86.8360 271° West 449 517 34,000  Level FlightAware
12:32PM 41.5390 -86.9600 271° West 448 516 34,000  Level FlightAware
12:33PM 41.5400 -87.0330 271° West 448 516 34,000  Level FlightAware
12:33PM 41.5410 -87.1580 271° West 449 517 34,000  Level FlightAware
12:34PM 41.5420 -87.2610 271° West 452 520 34,000  Level FlightAware
12:35PM 41.5430 -87.3640 271° West 453 521 34,000  Level FlightAware
12:35PM 41.5440 -87.4840 271° West 453 521 34,000  Level FlightAware
12:36PM 41.5450 -87.5640 271° West 453 521 34,000  Level FlightAware
12:36PM 41.5450 -87.6690 270° West 454 522 34,000  Level FlightAware
12:37PM 41.5460 -87.8010 271° West 454 522 34,000  Level FlightAware
12:38PM 41.5460 -87.9050 270° West 454 522 34,000  Level FlightAware
12:39PM 41.5460 -88.0390 270° West 454 522 34,000  Level FlightAware
12:39PM 41.5460 -88.1450 270° West 453 521 34,000  Level FlightAware
12:40PM 41.5460 -88.3020 270° West 453 521 34,000 240 Level FlightAware
12:41PM 41.5470 -88.4200 271° West 453 521 34,400 780 Climbing FlightAware
12:42PM 41.5480 -88.5750 271° West 449 517 35,300 840 Climbing FlightAware
12:42PM 41.5480 -88.6840 270° West 449 517 35,800 480 Climbing FlightAware
12:43PM 41.5480 -88.8020 270° West 451 519 36,000 120 Climbing FlightAware
12:44PM 41.5480 -88.9110 270° West 451 519 36,000  Level FlightAware
12:44PM 41.5480 -89.0000 270° West 452 520 36,000  Level FlightAware
12:45PM 41.5480 -89.1120 270° West 452 520 36,000  Level FlightAware
12:46PM 41.5480 -89.2320 270° West 452 520 36,000  Level FlightAware
12:46PM 41.5480 -89.3400 270° West 452 520 36,000  Level FlightAware
12:47PM 41.5480 -89.4290 270° West 452 520 36,000  Level FlightAware
12:48PM 41.5470 -89.5720 270° West 452 520 36,000  Level FlightAware
12:48PM 41.5470 -89.6670 270° West 451 519 36,000  Level FlightAware
12:49PM 41.5460 -89.7790 269° West 450 518 36,000  Level FlightAware
12:50PM 41.5450 -89.8950 269° West 450 518 36,000  Level FlightAware
12:50PM 41.5440 -89.9950 269° West 449 517 36,000  Level FlightAware
12:51PM 41.5430 -90.1090 269° West 449 517 36,000  Level FlightAware
12:52PM 41.5420 -90.2310 269° West 449 517 36,000  Level FlightAware
12:52PM 41.5410 -90.3410 269° West 449 517 36,000  Level FlightAware
12:53PM 41.5390 -90.4470 269° West 449 517 36,000  Level FlightAware
12:54PM 41.5380 -90.5840 269° West 450 518 36,000  Level FlightAware
12:55PM 41.5360 -90.6910 269° West 451 519 36,000  Level FlightAware
12:55PM 41.5340 -90.8060 269° West 452 520 36,000  Level FlightAware
12:56PM 41.5330 -90.9030 269° West 452 520 36,000  Level FlightAware
12:57PM 41.5310 -91.0300 269° West 453 521 36,000  Level FlightAware
12:57PM 41.5290 -91.1360 269° West 454 522 36,000  Level FlightAware
12:58PM 41.5270 -91.2580 269° West 456 525 36,000  Level FlightAware
12:59PM 41.5240 -91.3680 268° West 456 525 36,000  Level FlightAware
12:59PM 41.5220 -91.4650 268° West 457 526 36,000  Level FlightAware
01:00PM 41.5190 -91.6100 268° West 457 526 36,000  Level FlightAware
01:01PM 41.5160 -91.7020 268° West 456 525 36,000  Level FlightAware
01:01PM 41.5120 -91.8260 268° West 455 524 36,000  Level FlightAware
01:02PM 41.5080 -91.9440 267° West 454 522 36,000  Level FlightAware
01:03PM 41.5040 -92.0690 268° West 453 521 36,000  Level FlightAware
01:04PM 41.4990 -92.1930 267° West 452 520 36,000  Level FlightAware
01:04PM 41.4940 -92.3360 267° West 450 518 36,000  Level FlightAware
01:05PM 41.4890 -92.4580 267° West 449 517 36,000  Level FlightAware
01:06PM 41.4850 -92.5780 267° West 449 517 36,000  Level FlightAware
01:07PM 41.4800 -92.7030 267° West 450 518 36,000  Level FlightAware
01:07PM 41.4760 -92.8010 267° West 451 519 36,000  Level FlightAware
01:08PM 41.4710 -92.9190 267° West 453 521 36,000  Level FlightAware
01:09PM 41.4660 -93.0360 267° West 454 522 36,000  Level FlightAware
01:09PM 41.4610 -93.1420 266° West 455 524 36,000  Level FlightAware
01:10PM 41.4560 -93.2571 267° West 457 526 36,000  Level FlightAware ADS-B
01:10PM 41.4521 -93.3415 266° West 457 526 36,000  Level FlightAware ADS-B
01:11PM 41.4482 -93.4255 266° West 457 526 36,000  Level FlightAware ADS-B
01:11PM 41.4442 -93.5120 266° West 456 525 36,000  Level FlightAware ADS-B
01:12PM 41.4401 -93.5976 266° West 455 524 36,000  Level FlightAware ADS-B
01:12PM 41.4366 -93.6567 266° West 455 524 36,000  Level FlightAware ADS-B
01:13PM 41.4276 -93.7400 262° West 454 522 36,000  Level FlightAware ADS-B
01:13PM 41.4185 -93.8232 262° West 452 520 36,000  Level FlightAware ADS-B
01:14PM 41.4093 -93.9061 262° West 451 519 36,000  Level FlightAware ADS-B
01:14PM 41.4002 -93.9885 262° West 450 518 36,000  Level FlightAware ADS-B
01:15PM 41.3910 -94.0710 262° West 450 518 36,000  Level FlightAware ADS-B
01:15PM 41.3818 -94.1533 262° West 449 517 36,000  Level FlightAware ADS-B
01:16PM 41.3725 -94.2353 261° West 448 516 36,000  Level FlightAware ADS-B
01:16PM 41.3629 -94.3181 261° West 448 516 36,000  Level FlightAware ADS-B
01:17PM 41.3535 -94.4008 261° West 449 517 36,000  Level FlightAware ADS-B
01:17PM 41.3442 -94.4828 261° West 449 517 36,000  Level FlightAware ADS-B
01:18PM 41.3346 -94.5646 261° West 450 518 36,000  Level FlightAware ADS-B
01:18PM 41.3246 -94.6492 261° West 450 518 36,000  Level FlightAware ADS-B
01:19PM 41.3149 -94.7312 261° West 451 519 36,000  Level FlightAware ADS-B
01:19PM 41.3051 -94.8143 261° West 454 522 36,000  Level FlightAware ADS-B
01:20PM 41.2950 -94.8986 261° West 455 524 36,000  Level FlightAware ADS-B
01:20PM 41.2847 -94.9825 261° West 457 526 36,000  Level FlightAware ADS-B
01:21PM 41.2746 -95.0671 261° West 459 528 36,000  Level FlightAware ADS-B
01:21PM 41.2645 -95.1516 261° West 461 531 36,000  Level FlightAware ADS-B
01:22PM 41.2539 -95.2378 261° West 461 531 36,000  Level FlightAware ADS-B
01:22PM 41.2436 -95.3212 261° West 462 532 36,000  Level FlightAware ADS-B
01:23PM 41.2330 -95.4062 261° West 462 532 36,000  Level FlightAware ADS-B
01:23PM 41.2219 -95.4953 261° West 462 532 36,000  Level FlightAware ADS-B
01:24PM 41.2113 -95.5802 261° West 462 532 36,000  Level FlightAware ADS-B
01:24PM 41.2007 -95.6640 260° West 462 532 36,000  Level FlightAware ADS-B
01:25PM 41.1899 -95.7497 261° West 462 532 36,000  Level FlightAware ADS-B
01:25PM 41.1790 -95.8348 260° West 461 531 36,000  Level FlightAware ADS-B
01:26PM 41.1678 -95.9208 260° West 460 529 36,000  Level FlightAware ADS-B
01:26PM 41.1571 -96.0042 260° West 459 528 36,000  Level FlightAware ADS-B
01:27PM 41.1461 -96.0877 260° West 459 528 36,000  Level FlightAware ADS-B
01:27PM 41.1351 -96.1712 260° West 458 527 36,000  Level FlightAware ADS-B
01:28PM 41.1242 -96.2535 260° West 457 526 36,000  Level FlightAware ADS-B
01:28PM 41.1134 -96.3359 260° West 456 525 36,000  Level FlightAware ADS-B
01:29PM 41.1021 -96.4214 260° West 458 527 36,000  Level FlightAware ADS-B
01:29PM 41.0911 -96.5043 260° West 460 529 36,000  Level FlightAware ADS-B
01:30PM 41.0797 -96.5884 260° West 461 531 36,000  Level FlightAware ADS-B
01:30PM 41.0680 -96.6750 260° West 462 532 36,000  Level FlightAware ADS-B
01:31PM 41.0560 -96.7621 260° West 461 531 36,000  Level FlightAware ADS-B
01:32PM 41.0445 -96.8451 260° West 461 531 36,000  Level FlightAware ADS-B
01:32PM 41.0318 -96.9367 260° West 460 529 36,000  Level FlightAware ADS-B
01:33PM 41.0202 -97.0206 260° West 460 529 36,000  Level FlightAware ADS-B
01:33PM 41.0085 -97.1046 260° West 461 531 36,000  Level FlightAware ADS-B
01:34PM 40.9967 -97.1877 259° West 461 531 36,000  Level FlightAware ADS-B
01:34PM 40.9836 -97.2808 259° West 461 531 36,000  Level FlightAware ADS-B
01:35PM 40.9719 -97.3639 259° West 460 529 36,000  Level FlightAware ADS-B
01:35PM 40.9601 -97.4472 259° West 460 529 36,000  Level FlightAware ADS-B
01:36PM 40.9481 -97.5310 259° West 460 529 36,000  Level FlightAware ADS-B
01:36PM 40.9358 -97.6160 259° West 459 528 36,000  Level FlightAware ADS-B
01:37PM 40.9238 -97.6987 259° West 456 525 36,000  Level FlightAware ADS-B
01:37PM 40.9097 -97.7954 259° West 454 522 36,000  Level FlightAware ADS-B
01:38PM 40.8972 -97.8795 259° West 453 521 36,000  Level FlightAware ADS-B
01:38PM 40.8851 -97.9619 259° West 453 521 36,000  Level FlightAware ADS-B
01:39PM 40.8647 -98.0994 259° West 453 521 36,000  Level FlightAware ADS-B
01:40PM 40.8525 -98.1807 259° West 454 522 36,000  Level FlightAware ADS-B
01:40PM 40.8403 -98.2626 259° West 455 524 36,000  Level FlightAware ADS-B
01:41PM 40.8272 -98.3490 259° West 454 522 36,000  Level FlightAware ADS-B
01:41PM 40.8146 -98.4323 259° West 455 524 36,000  Level FlightAware ADS-B
01:42PM 40.8020 -98.5148 259° West 455 524 36,000  Level FlightAware ADS-B
01:42PM 40.7894 -98.5967 259° West 455 524 36,000  Level FlightAware ADS-B
01:43PM 40.7766 -98.6799 259° West 455 524 36,000  Level FlightAware ADS-B
01:43PM 40.7580 -98.7994 258° West 454 522 36,000  Level FlightAware ADS-B
01:44PM 40.7451 -98.8824 258° West 453 521 36,000  Level FlightAware ADS-B
01:44PM 40.7324 -98.9637 258° West 453 521 36,000  Level FlightAware ADS-B
01:45PM 40.7195 -99.0454 258° West 453 521 36,000  Level FlightAware ADS-B
01:45PM 40.7064 -99.1275 258° West 454 522 36,000  Level FlightAware ADS-B
01:46PM 40.6933 -99.2101 258° West 454 522 36,000  Level FlightAware ADS-B
01:47PM 40.6606 -99.4138 258° West 455 524 36,000  Level FlightAware ADS-B
01:48PM 40.6474 -99.4954 258° West 455 524 36,000  Level FlightAware ADS-B
01:48PM 40.6335 -99.5808 258° West 455 524 36,000  Level FlightAware ADS-B
01:49PM 40.6197 -99.6654 258° West 455 524 36,000  Level FlightAware ADS-B
01:49PM 40.6063 -99.7470 258° West 455 524 36,000  Level FlightAware ADS-B
01:50PM 40.5903 -99.8389 258° West 453 521 36,000  Level Denver Center
01:52PM 40.5419 -100.1325 258° West 455 524 36,000  Level Minneapolis Center
01:57PM 40.3792 -101.0750 258° West 466 536 36,000  Level FlightAware ADS-B
01:58PM 40.3640 -101.1600 257° West 467 537 36,000  Level FlightAware ADS-B
01:58PM 40.3492 -101.2430 257° West 468 539 36,000  Level FlightAware ADS-B
01:59PM 40.3337 -101.3300 257° West 468 539 36,000  Level FlightAware ADS-B
01:59PM 40.3188 -101.4130 257° West 468 539 36,000  Level FlightAware ADS-B
02:00PM 40.3038 -101.4960 257° West 468 539 36,000  Level FlightAware ADS-B
02:01PM 40.2881 -101.5830 257° West 468 539 36,000  Level FlightAware ADS-B
02:01PM 40.2725 -101.6680 257° West 467 537 36,000  Level FlightAware ADS-B
02:02PM 40.2561 -101.7580 257° West 467 537 36,000  Level FlightAware ADS-B
02:02PM 40.2404 -101.8420 256° West 467 537 36,000  Level FlightAware ADS-B
02:03PM 40.2248 -101.9270 257° West 467 537 36,000  Level FlightAware ADS-B
02:03PM 40.2096 -102.0090 256° West 467 537 36,000  Level FlightAware ADS-B
02:04PM 40.1943 -102.0910 256° West 467 537 36,000  Level FlightAware ADS-B
02:04PM 40.1786 -102.1750 256° West 467 537 36,000  Level FlightAware ADS-B
02:05PM 40.1629 -102.2590 256° West 467 537 36,000  Level FlightAware ADS-B
02:05PM 40.1472 -102.3410 256° West 466 536 36,000  Level FlightAware ADS-B
02:06PM 40.1312 -102.4250 256° West 465 535 36,000  Level FlightAware ADS-B
02:06PM 40.1156 -102.5080 256° West 464 534 36,000  Level FlightAware ADS-B
02:07PM 40.0992 -102.5920 256° West 462 532 36,000  Level FlightAware ADS-B
02:07PM 40.0833 -102.6750 256° West 461 531 36,000  Level FlightAware ADS-B
02:08PM 40.0677 -102.7560 256° West 460 529 36,000  Level FlightAware ADS-B
02:08PM 40.0521 -102.8370 256° West 459 528 36,000  Level FlightAware ADS-B
02:09PM 40.0357 -102.9210 256° West 458 527 36,000  Level FlightAware ADS-B
02:09PM 40.0199 -103.0030 256° West 458 527 36,000  Level FlightAware ADS-B
02:10PM 40.0041 -103.0830 256° West 461 531 36,000  Level FlightAware ADS-B
02:10PM 39.9879 -103.1650 256° West 464 534 36,000  Level FlightAware ADS-B
02:11PM 39.9712 -103.2490 255° West 466 536 36,000  Level FlightAware ADS-B
02:11PM 39.9550 -103.3310 256° West 465 535 36,000  Level FlightAware ADS-B
02:12PM 39.9388 -103.4120 255° West 464 534 36,000  Level FlightAware ADS-B
02:12PM 39.9218 -103.4970 255° West 464 534 36,000  Level FlightAware ADS-B
02:13PM 39.9053 -103.5790 255° West 465 535 36,000  Level FlightAware ADS-B
02:13PM 39.8888 -103.6610 255° West 467 537 36,000  Level FlightAware ADS-B
02:14PM 39.8722 -103.7430 255° West 468 539 36,000  Level FlightAware ADS-B
02:14PM 39.8535 -103.8350 255° West 469 540 36,000  Level FlightAware ADS-B
02:15PM 39.8367 -103.9170 255° West 469 540 36,000  Level FlightAware ADS-B
02:15PM 39.8195 -104.0010 255° West 470 541 36,000  Level FlightAware ADS-B
02:16PM 39.8026 -104.0830 255° West 471 542 36,000  Level FlightAware ADS-B
02:16PM 39.7854 -104.1660 255° West 471 542 36,000  Level FlightAware ADS-B
02:17PM 39.7681 -104.2500 255° West 471 542 36,000  Level FlightAware ADS-B
02:17PM 39.7504 -104.3340 255° West 471 542 36,000  Level FlightAware ADS-B
02:18PM 39.7333 -104.4160 255° West 471 542 36,000  Level FlightAware ADS-B
02:18PM 39.7161 -104.4980 255° West 472 543 36,000  Level FlightAware ADS-B
02:19PM 39.6987 -104.5810 255° West 471 542 36,000  Level FlightAware ADS-B
02:19PM 39.6804 -104.6660 254° West 471 542 36,000  Level FlightAware ADS-B
02:20PM 39.6621 -104.7480 254° West 471 542 36,000  Level FlightAware ADS-B
02:20PM 39.6434 -104.8310 254° West 471 542 36,000  Level FlightAware ADS-B
02:21PM 39.6248 -104.9140 254° West 471 542 36,000  Level FlightAware ADS-B
02:22PM 39.6055 -105.0000 254° West 471 542 36,000  Level FlightAware ADS-B
02:22PM 39.5839 -105.0960 254° West 472 543 36,000  Level FlightAware ADS-B
02:23PM 39.5655 -105.1780 254° West 472 543 36,000  Level FlightAware ADS-B
02:23PM 39.5429 -105.2770 254° West 472 543 36,000  Level FlightAware ADS-B
02:24PM 39.5239 -105.3610 254° West 473 544 36,000  Level FlightAware ADS-B
02:24PM 39.5044 -105.4460 253° West 473 544 36,000  Level FlightAware ADS-B
02:25PM 39.4857 -105.5280 254° West 473 544 36,000  Level FlightAware ADS-B
02:25PM 39.4661 -105.6130 253° West 475 547 36,000  Level FlightAware ADS-B
02:26PM 39.4470 -105.6950 253° West 475 547 36,000  Level FlightAware ADS-B
02:26PM 39.4246 -105.7920 253° West 475 547 36,000  Level FlightAware ADS-B
02:27PM 39.4020 -105.8890 253° West 477 549 36,000  Level FlightAware ADS-B
02:27PM 39.3824 -105.9720 253° West 477 549 36,000  Level FlightAware ADS-B
02:28PM 39.3630 -106.0540 253° West 477 549 36,000  Level FlightAware ADS-B
02:28PM 39.3437 -106.1360 253° West 475 547 36,000  Level FlightAware ADS-B
02:29PM 39.3224 -106.2270 253° West 474 545 36,000  Level FlightAware ADS-B
02:30PM 39.3015 -106.3140 253° West 471 542 36,000  Level FlightAware ADS-B
02:30PM 39.2820 -106.3960 253° West 471 542 36,000  Level FlightAware ADS-B
02:31PM 39.2627 -106.4770 253° West 471 542 36,000  Level FlightAware ADS-B
02:31PM 39.2423 -106.5620 253° West 471 542 36,000  Level FlightAware ADS-B
02:32PM 39.2227 -106.6430 253° West 471 542 36,000  Level FlightAware ADS-B
02:32PM 39.2026 -106.7270 253° West 470 541 36,000  Level FlightAware ADS-B
02:33PM 39.1670 -106.8740 253° West 468 539 36,000  Level FlightAware
02:33PM 39.1516 -106.9360 252° West 469 540 36,000  Level FlightAware ADS-B
02:34PM 39.1302 -107.0240 253° West 471 542 36,000  Level FlightAware ADS-B
02:35PM 39.1104 -107.1040 252° West 471 542 36,000  Level FlightAware ADS-B
02:35PM 39.0892 -107.1900 252° West 470 541 36,000  Level FlightAware ADS-B
02:36PM 39.0630 -107.2960 252° West 470 541 36,000  Level FlightAware
02:37PM 39.0340 -107.4130 252° West 469 540 36,000  Level FlightAware
02:37PM 39.0070 -107.5200 252° West 468 539 36,000  Level FlightAware
02:38PM 38.9850 -107.6080 252° West 467 537 36,000  Level FlightAware
02:38PM 38.9590 -107.7090 252° West 468 539 36,000  Level FlightAware
02:39PM 38.9310 -107.8240 253° West 465 535 36,000  Level FlightAware
02:40PM 38.9060 -107.9190 251° West 463 533 36,000  Level FlightAware
02:41PM 38.8730 -108.0520 252° West 463 533 36,000  Level FlightAware
02:42PM 38.8340 -108.2010 251° West 469 540 36,000  Level FlightAware
02:42PM 38.8080 -108.3020 252° West 471 542 36,000  Level FlightAware
02:43PM 38.7770 -108.4230 252° West 475 547 36,000  Level FlightAware
02:44PM 38.7490 -108.5310 252° West 475 547 36,000  Level FlightAware
02:44PM 38.7190 -108.6450 251° West 476 548 36,000  Level FlightAware
02:45PM 38.6900 -108.7560 252° West 476 548 36,000  Level FlightAware
02:46PM 38.6650 -108.8510 251° West 476 548 36,000  Level FlightAware
02:46PM 38.6340 -108.9690 251° West 474 545 36,000  Level FlightAware
02:47PM 38.6030 -109.0830 251° West 475 547 36,000  Level FlightAware
02:48PM 38.5790 -109.1730 251° West 474 545 36,000  Level FlightAware
02:48PM 38.5510 -109.2790 251° West 474 545 36,000  Level FlightAware
02:49PM 38.5170 -109.4050 251° West 471 542 36,000  Level FlightAware
02:50PM 38.4880 -109.5100 251° West 469 540 36,000  Level FlightAware
02:50PM 38.4590 -109.6160 251° West 467 537 36,000  Level FlightAware
02:51PM 38.4310 -109.7210 251° West 465 535 36,000  Level FlightAware
02:52PM 38.4010 -109.8300 251° West 466 536 36,000  Level FlightAware
02:53PM 38.3700 -109.9440 251° West 470 541 36,000  Level FlightAware
02:53PM 38.3390 -110.0540 250° West 469 540 36,000  Level FlightAware
02:54PM 38.3110 -110.1560 251° West 468 539 36,000  Level FlightAware
02:55PM 38.2720 -110.2970 251° West 467 537 36,000  Level FlightAware
02:55PM 38.2400 -110.4080 250° West 468 539 36,000  Level FlightAware
02:56PM 38.2130 -110.5040 250° West 468 539 36,000  Level FlightAware
02:57PM 38.1750 -110.6410 251° West 467 537 36,000  Level FlightAware
02:58PM 38.1400 -110.7380 245° Southwest 469 540 36,000  Level FlightAware
02:58PM 38.0980 -110.8250 238° Southwest 469 540 36,000  Level FlightAware
02:59PM 38.0540 -110.9120 237° Southwest 469 540 36,000  Level FlightAware
03:00PM 38.0150 -110.9920 238° Southwest 469 540 36,000  Level FlightAware
03:00PM 37.9790 -111.0650 238° Southwest 469 540 36,000  Level FlightAware
03:01PM 37.9310 -111.1620 238° Southwest 469 540 36,000  Level FlightAware
03:02PM 37.8950 -111.2360 238° Southwest 469 540 36,000  Level FlightAware
03:02PM 37.8580 -111.3110 238° Southwest 469 540 36,000  Level FlightAware
03:03PM 37.8130 -111.4020 238° Southwest 469 540 36,000  Level FlightAware
03:04PM 37.7770 -111.4750 238° Southwest 469 540 36,000  Level FlightAware
03:04PM 37.7310 -111.5680 238° Southwest 469 540 36,000  Level FlightAware
03:05PM 37.6950 -111.6420 238° Southwest 469 540 36,000  Level FlightAware
03:06PM 37.6470 -111.7380 238° Southwest 469 540 36,000  Level FlightAware
03:06PM 37.6140 -111.8050 238° Southwest 469 540 36,000  Level FlightAware
03:07PM 37.5660 -111.9020 238° Southwest 469 540 36,000  Level FlightAware
03:08PM 37.5320 -111.9690 237° Southwest 469 540 36,000  Level FlightAware
03:09PM 37.4850 -112.0660 239° Southwest 469 540 36,000  Level FlightAware
03:11PM 37.1930 -112.6070 236° Southwest 460 529 36,000  Level FlightAware
03:12PM 37.1430 -112.6860 232° Southwest 461 531 36,000  Level FlightAware
03:12PM 37.0910 -112.7660 231° Southwest 463 533 36,000  Level FlightAware
03:13PM 37.0370 -112.8490 231° Southwest 465 535 36,000  Level FlightAware
03:14PM 36.9820 -112.9340 231° Southwest 467 537 36,000  Level FlightAware
03:14PM 36.9310 -113.0120 231° Southwest 469 540 36,000  Level FlightAware
03:15PM 36.8720 -113.1050 232° Southwest 469 540 36,000  Level FlightAware
03:16PM 36.8190 -113.1860 231° Southwest 469 540 36,000  Level FlightAware
03:16PM 36.7650 -113.2690 231° Southwest 470 541 36,000  Level FlightAware
03:17PM 36.7070 -113.3570 231° Southwest 470 541 36,000  Level FlightAware
03:18PM 36.6460 -113.4500 231° Southwest 471 542 36,000  Level FlightAware
03:19PM 36.5870 -113.5400 231° Southwest 472 543 36,000  Level FlightAware
03:19PM 36.5260 -113.6320 230° Southwest 473 544 36,000  Level FlightAware
03:20PM 36.4800 -113.7010 230° Southwest 473 544 36,000  Level FlightAware
03:21PM 36.4100 -113.8070 231° Southwest 473 544 36,000  Level FlightAware
03:21PM 36.3570 -113.8860 230° Southwest 472 543 36,000  Level FlightAware
03:22PM 36.2950 -113.9800 231° Southwest 471 542 36,000  Level FlightAware
03:23PM 36.2350 -114.0700 230° Southwest 471 542 36,000  Level FlightAware
03:23PM 36.1830 -114.1470 230° Southwest 471 542 36,000  Level FlightAware
03:24PM 36.1240 -114.2340 230° Southwest 472 543 36,000  Level FlightAware
03:25PM 36.0620 -114.3260 230° Southwest 472 543 36,000  Level FlightAware
03:26PM 36.0020 -114.4160 231° Southwest 472 543 36,000  Level FlightAware
03:26PM 35.9420 -114.5040 230° Southwest 472 543 36,000  Level FlightAware
03:27PM 35.8850 -114.5880 230° Southwest 470 541 36,000  Level FlightAware
03:28PM 35.8430 -114.6510 231° Southwest 470 541 36,000  Level FlightAware
03:28PM 35.7770 -114.7480 230° Southwest 469 540 36,000  Level FlightAware
03:29PM 35.7210 -114.8290 230° Southwest 467 537 36,000  Level FlightAware
03:30PM 35.6750 -114.8950 229° Southwest 466 536 36,000  Level FlightAware
03:30PM 35.6120 -114.9880 230° Southwest 465 535 36,000  Level FlightAware
03:31PM 35.5560 -115.0690 230° Southwest 467 537 36,000  Level FlightAware
03:32PM 35.4920 -115.1620 230° Southwest 467 537 36,000  Level FlightAware
03:32PM 35.4350 -115.2440 230° Southwest 467 537 36,000  Level FlightAware
03:33PM 35.3810 -115.3230 230° Southwest 465 535 36,000  Level FlightAware
03:34PM 35.3330 -115.4250 240° Southwest 465 535 36,000  Level FlightAware
03:34PM 35.3020 -115.5050 245° Southwest 464 534 36,000  Level FlightAware
03:35PM 35.2480 -115.5920 233° Southwest 464 534 36,000  Level FlightAware
03:36PM 35.1880 -115.6730 228° Southwest 461 531 36,000 -420 Level FlightAware
03:36PM 35.1380 -115.7410 228° Southwest 455 524 35,500 -900 Descending FlightAware
03:37PM 35.0820 -115.8170 228° Southwest 456 525 34,900 -1,080 Descending FlightAware
03:38PM 35.0210 -115.8990 228° Southwest 453 521 34,100 -1,080 Descending FlightAware
03:38PM 34.9680 -115.9700 228° Southwest 448 516 33,500 -1,020 Descending FlightAware
03:39PM 34.9130 -116.0440 228° Southwest 444 511 32,800 -1,020 Descending FlightAware
03:40PM 34.8520 -116.1250 227° Southwest 440 506 32,100 -660 Descending FlightAware
03:40PM 34.8070 -116.1850 228° Southwest 437 503 32,000 -420 Descending FlightAware
03:41PM 34.7450 -116.2690 228° Southwest 438 504 31,600 -780 Descending FlightAware
03:42PM 34.6860 -116.3480 228° Southwest 432 497 30,900 -1,860 Descending FlightAware
03:43PM 34.6270 -116.4270 228° Southwest 433 498 29,000 -1,560 Descending FlightAware
03:43PM 34.5790 -116.4880 226° Southwest 445 512 28,800 -180 Descending FlightAware
03:44PM 34.5330 -116.5490 228° Southwest 445 512 28,800  Level FlightAware
03:44PM 34.4920 -116.6020 227° Southwest 445 512 28,800 -3,180 Level FlightAware
03:46PM 34.3530 -116.7880 228° Southwest 414 476 21,900 -3,180 Descending FlightAware
03:47PM 34.3150 -116.8370 227° Southwest 414 476 21,800 -2,040 Descending FlightAware
03:47PM 34.2430 -116.9070 219° Southwest 406 467 19,400 -2,880 Descending FlightAware
03:48PM 34.2340 -116.9120 205° Southwest 388 447 19,300 -480 Descending FlightAware
03:48PM 34.1820 -116.9410 205° Southwest 380 437 19,000 -300 Descending FlightAware
03:49PM 34.1340 -116.9940 222° Southwest 390 449 19,000  Level FlightAware
03:49PM 34.1140 -117.0780 254° West 393 452 19,000 -300 Level FlightAware
03:50PM 34.0850 -117.2080 255° West 376 433 18,600 -840 Descending FlightAware
03:51PM 34.0670 -117.2840 254° West 367 422 17,700 -1,620 Descending FlightAware
03:52PM 34.0500 -117.3630 255° West 358 412 16,500 -1,860 Descending FlightAware
03:52PM 34.0320 -117.4400 254° West 351 404 15,200 -1,980 Descending FlightAware
03:53PM 34.0210 -117.5390 262° West 343 395 13,500 -1,920 Descending FlightAware
03:54PM 34.0150 -117.5940 263° West 335 386 12,600 -1,740 Descending FlightAware
03:54PM 34.0070 -117.6790 264° West 322 371 11,300 -1,680 Descending FlightAware
03:55PM 34.0000 -117.7540 264° West 307 353 10,100 -1,740 Descending FlightAware
03:56PM 33.9960 -117.7990 264° West 302 348 9,300 -1,800 Descending FlightAware
03:56PM 33.9910 -117.8450 263° West 302 348 8,500 -1,620 Descending FlightAware
03:56PM 33.9870 -117.8920 264° West 291 335 7,800 -1,440 Descending FlightAware
03:57PM 33.9850 -117.9060 260° West 289 333 7,600 -1,320 Descending FlightAware
03:57PM 33.9810 -117.9550 264° West 280 322 6,900 -1,380 Descending FlightAware
03:58PM 33.9760 -118.0000 262° West 270 311 6,200 -1,440 Descending FlightAware
03:58PM 33.9720 -118.0380 263° West 264 304 5,600 -1,440 Descending FlightAware
03:59PM 33.9680 -118.0790 263° West 259 298 4,900 -1,440 Descending FlightAware
03:59PM 33.9640 -118.1190 263° West 253 291 4,200 -1,320 Descending FlightAware
03:59PM 33.9610 -118.1500 263° West 247 284 3,800 -1,200 Descending FlightAware
04:00PM 33.9570 -118.1840 262° West 233 268 3,300 -1,200 Descending FlightAware
04:00PM 33.9550 -118.2120 265° West 207 238 2,800 -1,080 Descending FlightAware
04:01PM 33.9520 -118.2350 261° West 188 216 2,500 -1,080 Descending FlightAware
04:01PM 33.9500 -118.2610 265° West 169 194 2,000 -1,080 Descending FlightAware
04:01PM 33.9490 -118.2700 262° West 163 188 1,900 -720 Descending FlightAware
04:02PM 33.9460 -118.2970 262° West 151 174 1,500 -720 Descending FlightAware
04:02PM 33.9420 -118.3310 262° West 152 175 1,000 -900 Descending FlightAware
04:03PM 33.9400 -118.3590 265° West 168 193 500 -780 Descending FlightAware
04:03PM 33.9380 -118.3760 262° West 164 189 300 -360 Descending FlightAware
04:04PM 33.9350 -118.4010 262° West 164 189 200 -240 Descending FlightAware